createdAt,value
2018-11-02T00:00:00.853Z,7.80
2018-11-02T00:02:28.386Z,7.80
2018-11-02T00:04:56.436Z,7.70
2018-11-02T00:07:24.449Z,7.60
2018-11-02T00:09:52.030Z,7.60
2018-11-02T00:12:19.627Z,7.60
2018-11-02T00:14:47.883Z,7.60
2018-11-02T00:17:16.214Z,7.50
2018-11-02T00:19:43.798Z,7.50
2018-11-02T00:22:11.283Z,7.40
2018-11-02T00:24:39.681Z,7.40
2018-11-02T00:27:07.302Z,7.40
2018-11-02T00:29:35.011Z,7.30
2018-11-02T00:32:02.648Z,7.30
2018-11-02T00:34:31.827Z,7.30
2018-11-02T00:37:00.256Z,7.30
2018-11-02T00:39:27.838Z,7.30
2018-11-02T00:41:56.720Z,7.20
2018-11-02T00:44:24.590Z,7.20
2018-11-02T00:46:52.119Z,7.20
2018-11-02T00:49:20.208Z,7.20
2018-11-02T00:51:48.153Z,7.20
2018-11-02T00:54:16.632Z,7.10
2018-11-02T00:56:44.169Z,7.10
2018-11-02T00:59:11.773Z,7.10
2018-11-02T01:01:39.388Z,7.10
2018-11-02T01:04:07.225Z,7.10
2018-11-02T01:06:34.897Z,7.10
2018-11-02T01:09:02.953Z,7.10
2018-11-02T01:11:30.663Z,7.00
2018-11-02T01:13:58.190Z,6.80
2018-11-02T01:16:27.130Z,7.00
2018-11-02T01:18:54.628Z,7.00
2018-11-02T01:21:22.200Z,7.00
2018-11-02T01:23:49.781Z,7.00
2018-11-02T01:26:17.993Z,6.90
2018-11-02T01:28:46.066Z,6.90
2018-11-02T01:31:14.353Z,7.00
2018-11-02T01:33:41.940Z,6.90
2018-11-02T01:36:11.364Z,6.90
2018-11-02T01:38:38.898Z,6.90
2018-11-02T01:41:08.390Z,6.90
2018-11-02T01:43:35.905Z,6.90
2018-11-02T01:46:03.468Z,6.90
2018-11-02T01:48:31.776Z,6.90
2018-11-02T01:51:00.065Z,6.90
2018-11-02T01:53:28.223Z,6.80
2018-11-02T01:55:56.662Z,6.80
2018-11-02T01:58:24.190Z,6.70
2018-11-02T02:00:51.727Z,6.70
2018-11-02T02:03:19.246Z,6.70
2018-11-02T02:05:46.854Z,6.60
2018-11-02T02:08:15.492Z,6.60
2018-11-02T02:10:42.995Z,6.70
2018-11-02T02:13:11.740Z,6.60
2018-11-02T02:15:39.724Z,6.60
2018-11-02T02:18:07.830Z,6.60
2018-11-02T02:20:35.449Z,6.60
2018-11-02T02:23:02.987Z,6.50
2018-11-02T02:25:31.302Z,6.50
2018-11-02T02:27:58.808Z,6.50
2018-11-02T02:30:26.337Z,6.60
2018-11-02T02:32:54.577Z,6.60
2018-11-02T02:35:22.934Z,6.60
2018-11-02T02:37:50.467Z,6.60
2018-11-02T02:40:19.163Z,6.50
2018-11-02T02:42:47.786Z,6.50
2018-11-02T02:45:16.229Z,6.30
2018-11-02T02:47:44.788Z,6.30
2018-11-02T02:50:13.937Z,6.20
2018-11-02T02:52:42.880Z,6.20
2018-11-02T02:55:10.896Z,6.20
2018-11-02T02:57:38.578Z,6.20
2018-11-02T03:00:08.618Z,6.30
2018-11-02T03:02:36.187Z,6.30
2018-11-02T03:05:03.818Z,6.30
2018-11-02T03:07:31.989Z,6.30
2018-11-02T03:10:00.105Z,6.30
2018-11-02T03:12:27.731Z,6.40
2018-11-02T03:14:55.897Z,6.30
2018-11-02T03:17:25.104Z,6.30
2018-11-02T03:19:52.709Z,6.40
2018-11-02T03:22:20.473Z,6.30
2018-11-02T03:24:49.752Z,6.30
2018-11-02T03:27:17.455Z,6.30
2018-11-02T03:29:45.651Z,6.30
2018-11-02T03:32:13.756Z,6.20
2018-11-02T03:34:41.267Z,6.20
2018-11-02T03:37:08.913Z,6.20
2018-11-02T03:39:36.509Z,6.20
2018-11-02T03:42:05.779Z,6.20
2018-11-02T03:44:34.448Z,6.20
2018-11-02T03:47:02.584Z,6.20
2018-11-02T03:49:30.672Z,6.20
2018-11-02T03:51:58.740Z,6.20
2018-11-02T03:54:27.592Z,6.20
2018-11-02T03:56:55.229Z,6.20
2018-11-02T03:59:22.685Z,6.20
2018-11-02T04:01:50.432Z,6.10
2018-11-02T04:04:17.968Z,6.10
2018-11-02T04:06:46.559Z,6.20
2018-11-02T04:09:15.109Z,6.20
2018-11-02T04:11:42.936Z,6.30
2018-11-02T04:14:10.449Z,6.30
2018-11-02T04:16:38.712Z,6.30
2018-11-02T04:19:06.277Z,6.40
2018-11-02T04:21:37.668Z,6.40
2018-11-02T04:24:05.916Z,6.40
2018-11-02T04:26:33.425Z,6.40
2018-11-02T04:29:01.567Z,6.40
2018-11-02T04:31:29.072Z,6.40
2018-11-02T04:33:56.599Z,6.40
2018-11-02T04:36:24.260Z,6.40
2018-11-02T04:38:51.758Z,6.40
2018-11-02T04:41:19.741Z,6.40
2018-11-02T04:43:47.872Z,6.30
2018-11-02T04:46:15.377Z,6.30
2018-11-02T04:48:43.353Z,6.40
2018-11-02T04:51:11.042Z,6.40
2018-11-02T04:53:39.360Z,6.40
2018-11-02T04:56:06.872Z,6.40
2018-11-02T04:58:34.390Z,6.50
2018-11-02T05:01:01.973Z,6.50
2018-11-02T05:03:29.482Z,6.50
2018-11-02T05:05:57.083Z,6.50
2018-11-02T05:08:25.153Z,6.60
2018-11-02T05:10:52.849Z,6.60
2018-11-02T05:13:20.384Z,6.60
2018-11-02T05:15:48.507Z,6.50
2018-11-02T05:18:16.417Z,6.50
2018-11-02T05:20:43.977Z,6.40
2018-11-02T05:23:11.512Z,6.40
2018-11-02T05:25:39.653Z,6.30
2018-11-02T05:28:07.293Z,6.50
2018-11-02T05:30:34.902Z,6.50
2018-11-02T05:33:03.006Z,6.50
2018-11-02T05:35:30.532Z,6.50
2018-11-02T05:37:59.012Z,6.50
2018-11-02T05:40:26.565Z,6.60
2018-11-02T05:42:54.932Z,6.60
2018-11-02T05:45:22.486Z,6.60
2018-11-02T05:47:50.770Z,6.60
2018-11-02T05:50:18.301Z,6.60
2018-11-02T05:52:47.364Z,6.60
2018-11-02T05:55:15.840Z,6.60
2018-11-02T05:57:43.339Z,6.60
2018-11-02T06:00:11.492Z,6.70
2018-11-02T06:02:39.111Z,6.70
2018-11-02T06:05:06.968Z,6.70
2018-11-02T06:07:36.173Z,6.70
2018-11-02T06:10:03.740Z,6.70
2018-11-02T06:12:31.299Z,6.70
2018-11-02T06:14:59.571Z,6.60
2018-11-02T06:17:27.908Z,6.60
2018-11-02T06:19:55.417Z,6.70
2018-11-02T06:22:22.956Z,6.70
2018-11-02T06:24:51.520Z,6.80
2018-11-02T06:27:19.014Z,6.70
2018-11-02T06:29:46.833Z,6.70
2018-11-02T06:32:14.364Z,6.70
2018-11-02T06:34:41.892Z,6.80
2018-11-02T06:37:10.267Z,6.80
2018-11-02T06:39:38.549Z,6.80
2018-11-02T06:42:06.776Z,6.80
2018-11-02T06:44:34.344Z,6.80
2018-11-02T06:47:02.948Z,7.00
2018-11-02T06:49:31.787Z,7.00
2018-11-02T06:52:00.876Z,7.10
2018-11-02T06:54:29.155Z,7.20
2018-11-02T06:56:56.694Z,7.20
2018-11-02T06:59:24.549Z,7.30
2018-11-02T07:01:51.968Z,7.40
2018-11-02T07:04:19.519Z,7.50
2018-11-02T07:06:47.592Z,7.50
2018-11-02T07:09:15.112Z,7.60
2018-11-02T07:11:44.036Z,7.60
2018-11-02T07:14:11.557Z,7.70
2018-11-02T07:16:40.106Z,7.80
2018-11-02T07:19:07.732Z,7.80
2018-11-02T07:21:36.459Z,7.80
2018-11-02T07:24:04.740Z,7.80
2018-11-02T07:26:32.256Z,7.90
2018-11-02T07:29:00.282Z,7.90
2018-11-02T07:31:27.988Z,7.90
2018-11-02T07:33:55.916Z,8.00
2018-11-02T07:36:24.310Z,8.10
2018-11-02T07:38:52.596Z,8.20
2018-11-02T07:41:20.652Z,8.20
2018-11-02T07:50:35.620Z,8.40
2018-11-02T07:53:04.486Z,8.50
2018-11-02T07:55:34.034Z,8.50
2018-11-02T07:58:01.652Z,8.50
2018-11-02T08:00:29.254Z,8.60
2018-11-02T08:02:56.843Z,8.60
2018-11-02T08:05:24.941Z,8.70
2018-11-02T08:07:53.994Z,8.80
2018-11-02T08:10:22.366Z,8.90
2018-11-02T08:12:49.898Z,9.00
2018-11-02T08:15:17.420Z,9.10
2018-11-02T08:17:46.397Z,9.20
2018-11-02T08:20:13.898Z,9.30
2018-11-02T08:22:41.884Z,9.40
2018-11-02T08:25:10.912Z,9.30
2018-11-02T08:27:38.753Z,9.40
2018-11-02T08:30:07.644Z,9.50
2018-11-02T08:32:36.081Z,9.40
2018-11-02T08:35:06.105Z,9.50
2018-11-02T08:37:34.325Z,9.60
2018-11-02T08:40:01.865Z,9.60
2018-11-02T08:42:30.102Z,9.80
2018-11-02T08:44:58.283Z,9.90
2018-11-02T08:47:26.040Z,9.90
2018-11-02T08:49:53.972Z,10.00
2018-11-02T08:52:22.254Z,10.00
2018-11-02T08:54:50.306Z,10.10
2018-11-02T08:57:18.585Z,10.10
2018-11-02T08:59:46.189Z,10.20
2018-11-02T09:02:13.807Z,10.30
2018-11-02T09:04:41.399Z,10.40
2018-11-02T09:07:09.513Z,10.40
2018-11-02T09:09:37.070Z,10.50
2018-11-02T09:12:04.669Z,10.50
2018-11-02T09:14:32.305Z,10.60
2018-11-02T09:17:00.922Z,10.70
2018-11-02T09:19:28.470Z,10.80
2018-11-02T09:21:58.146Z,10.80
2018-11-02T09:24:26.510Z,10.90
2018-11-02T09:26:54.101Z,11.00
2018-11-02T09:29:22.798Z,11.00
2018-11-02T09:31:51.136Z,11.00
2018-11-02T09:34:18.693Z,11.00
2018-11-02T09:36:46.347Z,11.00
2018-11-02T09:39:14.090Z,11.00
2018-11-02T09:41:42.467Z,11.00
2018-11-02T09:44:10.700Z,11.00
2018-11-02T09:46:38.941Z,11.10
2018-11-02T09:49:06.952Z,11.20
2018-11-02T09:51:34.669Z,11.20
2018-11-02T09:54:02.992Z,11.20
2018-11-02T09:56:30.966Z,11.30
2018-11-02T09:58:58.508Z,11.40
2018-11-02T10:01:26.169Z,11.50
2018-11-02T10:03:54.876Z,11.60
2018-11-02T10:06:22.538Z,11.70
2018-11-02T10:08:51.060Z,11.80
2018-11-02T10:11:18.621Z,11.90
2018-11-02T10:13:46.705Z,11.90
2018-11-02T10:16:15.278Z,11.80
2018-11-02T10:18:42.861Z,11.90
2018-11-02T10:21:10.476Z,12.00
2018-11-02T10:23:38.137Z,12.00
2018-11-02T10:26:06.340Z,12.00
2018-11-02T10:28:34.171Z,12.00
2018-11-02T10:31:02.300Z,12.00
2018-11-02T10:33:29.916Z,11.90
2018-11-02T10:35:57.625Z,11.80
2018-11-02T10:38:25.283Z,11.80
2018-11-02T10:40:55.059Z,11.60
2018-11-02T10:43:23.964Z,11.60
2018-11-02T10:45:55.151Z,11.60
2018-11-02T10:48:24.710Z,11.60
2018-11-02T10:50:52.812Z,11.50
2018-11-02T10:53:21.130Z,11.40
2018-11-02T10:55:49.060Z,11.50
2018-11-02T10:58:16.621Z,11.40
2018-11-02T11:00:50.042Z,11.50
2018-11-02T11:03:19.371Z,11.50
2018-11-02T11:05:47.681Z,11.50
2018-11-02T11:08:15.848Z,11.50
2018-11-02T11:10:43.849Z,11.60
2018-11-02T11:13:11.728Z,11.70
2018-11-02T11:15:39.002Z,11.70
2018-11-02T11:18:07.064Z,11.60
2018-11-02T11:20:34.704Z,11.60
2018-11-02T11:23:02.242Z,11.60
2018-11-02T11:25:30.560Z,11.40
2018-11-02T11:27:58.707Z,11.30
2018-11-02T11:30:26.264Z,11.40
2018-11-02T11:32:54.356Z,11.30
2018-11-02T11:35:21.993Z,11.30
2018-11-02T11:37:49.607Z,11.20
2018-11-02T11:40:19.336Z,11.20
2018-11-02T11:42:46.971Z,11.10
2018-11-02T11:45:16.305Z,11.30
2018-11-02T11:47:44.192Z,11.30
2018-11-02T11:50:16.704Z,11.50
2018-11-02T11:52:47.233Z,11.60
2018-11-02T11:55:15.919Z,11.50
2018-11-02T11:57:43.632Z,11.70
2018-11-02T12:00:13.801Z,11.60
2018-11-02T12:02:41.620Z,11.80
2018-11-02T12:05:11.356Z,11.80
2018-11-02T12:07:41.024Z,11.80
2018-11-02T12:10:12.988Z,11.90
2018-11-02T12:12:40.575Z,11.90
2018-11-02T12:15:10.610Z,11.90
2018-11-02T12:17:39.968Z,11.90
2018-11-02T12:20:10.352Z,12.00
2018-11-02T12:22:38.992Z,11.80
2018-11-02T12:25:08.848Z,11.90
2018-11-02T12:27:36.928Z,12.00
2018-11-02T12:30:05.009Z,12.00
2018-11-02T12:32:32.730Z,12.00
2018-11-02T12:35:00.355Z,12.10
2018-11-02T12:37:28.219Z,12.20
2018-11-02T12:39:55.884Z,12.20
2018-11-02T12:42:24.224Z,12.10
2018-11-02T12:44:51.835Z,12.20
2018-11-02T12:47:19.396Z,12.20
2018-11-02T12:49:48.538Z,12.30
2018-11-02T12:52:16.829Z,12.20
2018-11-02T12:54:44.959Z,12.20
2018-11-02T12:57:13.180Z,12.10
2018-11-02T12:59:41.393Z,12.10
2018-11-02T13:02:09.578Z,12.10
2018-11-02T13:04:37.305Z,12.10
2018-11-02T13:07:05.905Z,12.10
2018-11-02T13:09:33.514Z,12.10
2018-11-02T13:12:01.047Z,12.10
2018-11-02T13:14:28.614Z,12.10
2018-11-02T13:16:56.678Z,12.20
2018-11-02T13:19:25.051Z,12.30
2018-11-02T13:21:53.383Z,12.40
2018-11-02T13:24:21.716Z,12.40
2018-11-02T13:26:49.845Z,12.40
2018-11-02T13:29:18.240Z,12.50
2018-11-02T13:31:45.894Z,12.50
2018-11-02T13:34:13.428Z,12.60
2018-11-02T13:36:41.870Z,12.60
2018-11-02T13:39:11.249Z,12.60
2018-11-02T13:41:38.972Z,12.60
2018-11-02T13:44:07.952Z,12.60
2018-11-02T13:46:36.171Z,12.50
2018-11-02T13:49:05.945Z,12.50
2018-11-02T13:51:33.940Z,12.60
2018-11-02T13:54:02.089Z,12.50
2018-11-02T13:56:29.646Z,12.40
2018-11-02T13:58:57.337Z,12.30
2018-11-02T14:01:26.089Z,12.30
2018-11-02T14:03:54.460Z,12.30
2018-11-02T14:06:22.016Z,12.20
2018-11-02T14:08:51.176Z,12.20
2018-11-02T14:11:19.042Z,12.10
2018-11-02T14:13:47.124Z,12.00
2018-11-02T14:16:15.417Z,12.00
2018-11-02T14:18:43.071Z,11.90
2018-11-02T14:21:11.974Z,11.90
2018-11-02T14:23:39.548Z,11.90
2018-11-02T14:26:09.427Z,11.90
2018-11-02T14:28:37.376Z,11.80
2018-11-02T14:31:05.563Z,11.80
2018-11-02T14:33:33.268Z,11.60
2018-11-02T14:36:00.891Z,11.60
2018-11-02T14:38:28.844Z,11.60
2018-11-02T14:40:56.534Z,11.50
2018-11-02T14:43:24.107Z,11.50
2018-11-02T14:45:51.744Z,11.50
2018-11-02T14:48:19.989Z,11.50
2018-11-02T14:50:47.569Z,11.40
2018-11-02T14:53:15.785Z,11.30
2018-11-02T14:55:44.052Z,11.40
2018-11-02T14:58:12.137Z,11.30
2018-11-02T15:00:39.680Z,11.30
2018-11-02T15:03:07.897Z,11.30
2018-11-02T15:05:36.128Z,11.20
2018-11-02T15:08:04.698Z,11.20
2018-11-02T15:10:32.345Z,11.20
2018-11-02T15:12:59.925Z,11.10
2018-11-02T15:15:28.044Z,11.10
2018-11-02T15:17:56.075Z,11.10
2018-11-02T15:20:24.170Z,11.10
2018-11-02T15:22:51.708Z,11.10
2018-11-02T15:25:20.012Z,11.10
2018-11-02T15:27:47.536Z,11.00
2018-11-02T15:30:16.124Z,11.00
2018-11-02T15:32:44.704Z,11.00
2018-11-02T15:35:12.556Z,11.00
2018-11-02T15:37:40.873Z,11.00
2018-11-02T15:40:09.745Z,11.00
2018-11-02T15:42:37.409Z,10.90
2018-11-02T15:45:07.198Z,10.90
2018-11-02T15:47:34.789Z,10.90
2018-11-02T15:50:02.828Z,10.90
2018-11-02T15:52:31.192Z,10.80
2018-11-02T15:54:59.475Z,10.80
2018-11-02T15:57:28.728Z,10.80
2018-11-02T15:59:57.427Z,10.80
2018-11-02T16:02:25.400Z,10.70
2018-11-02T16:04:54.044Z,10.70
2018-11-02T16:07:22.265Z,10.70
2018-11-02T16:09:49.868Z,10.70
2018-11-02T16:12:17.968Z,10.70
2018-11-02T16:14:46.332Z,10.60
2018-11-02T16:17:15.056Z,10.60
2018-11-02T16:19:42.689Z,10.60
2018-11-02T16:22:10.260Z,10.60
2018-11-02T16:24:38.337Z,10.60
2018-11-02T16:27:05.932Z,10.50
2018-11-02T16:29:33.467Z,10.40
2018-11-02T16:32:01.146Z,10.40
2018-11-02T16:34:29.342Z,10.40
2018-11-02T16:36:58.614Z,10.40
2018-11-02T16:39:26.371Z,10.40
2018-11-02T16:41:55.369Z,10.40
2018-11-02T16:44:23.122Z,10.40
2018-11-02T16:46:52.059Z,10.40
2018-11-02T16:49:20.604Z,10.40
2018-11-02T16:51:48.340Z,10.30
2018-11-02T16:54:17.147Z,10.30
2018-11-02T16:56:46.251Z,10.30
2018-11-02T16:59:14.361Z,10.20
2018-11-02T17:01:42.066Z,10.20
2018-11-02T17:04:09.670Z,10.30
2018-11-02T17:06:38.741Z,10.30
2018-11-02T17:09:10.289Z,10.30
2018-11-02T17:11:38.597Z,10.30
2018-11-02T17:14:06.501Z,10.30
2018-11-02T17:16:35.559Z,10.30
2018-11-02T17:19:03.185Z,10.30
2018-11-02T17:21:31.230Z,10.30
2018-11-02T17:24:03.409Z,10.40
2018-11-02T17:26:31.036Z,10.40
2018-11-02T17:28:58.636Z,10.30
2018-11-02T17:31:26.237Z,10.30
2018-11-02T17:33:54.176Z,10.30
2018-11-02T17:36:21.806Z,10.20
2018-11-02T17:38:51.063Z,10.20
2018-11-02T17:41:19.862Z,10.20
2018-11-02T17:43:47.466Z,10.20
2018-11-02T17:46:16.828Z,10.20
2018-11-02T17:48:44.742Z,10.10
2018-11-02T17:51:12.496Z,10.10
2018-11-02T17:53:40.964Z,10.20
2018-11-02T17:56:08.907Z,10.10
2018-11-02T17:58:36.550Z,10.20
2018-11-02T18:01:04.105Z,10.10
2018-11-02T18:03:31.732Z,10.20
2018-11-02T18:05:59.392Z,10.10
2018-11-02T18:08:28.677Z,10.20
2018-11-02T18:10:57.413Z,10.20
2018-11-02T18:13:25.473Z,10.20
2018-11-02T18:15:53.033Z,10.10
2018-11-02T18:18:21.206Z,10.10
2018-11-02T18:20:49.436Z,10.10
2018-11-02T18:23:17.136Z,10.00
2018-11-02T18:25:45.524Z,10.00
2018-11-02T18:29:16.697Z,10.00
2018-11-02T18:31:45.237Z,10.00
2018-11-02T18:34:13.276Z,9.90
2018-11-02T18:36:41.324Z,9.90
2018-11-02T18:39:13.084Z,9.90
2018-11-02T18:41:41.385Z,9.90
2018-11-02T18:44:10.036Z,9.90
2018-11-02T18:46:37.841Z,9.80
2018-11-02T18:49:06.097Z,9.80
2018-11-02T18:51:34.974Z,9.80
2018-11-02T18:54:04.521Z,9.80
2018-11-02T18:56:32.124Z,9.80
2018-11-02T18:58:59.677Z,9.80
2018-11-02T19:01:27.683Z,9.70
2018-11-02T19:03:55.259Z,9.80
2018-11-02T19:06:23.420Z,9.80
2018-11-02T19:08:51.536Z,9.70
2018-11-02T19:11:20.388Z,9.70
2018-11-02T19:13:47.958Z,9.70
2018-11-02T19:16:16.960Z,9.70
2018-11-02T19:18:44.512Z,9.70
2018-11-02T19:21:12.926Z,9.70
2018-11-02T19:23:40.556Z,9.80
2018-11-02T19:26:08.836Z,9.80
2018-11-02T19:28:36.431Z,9.90
2018-11-02T19:31:04.937Z,9.90
2018-11-02T19:33:33.216Z,9.90
2018-11-02T19:36:01.788Z,9.90
2018-11-02T19:38:30.092Z,9.90
2018-11-02T19:40:58.620Z,9.90
2018-11-02T19:43:26.176Z,9.90
2018-11-02T19:45:53.816Z,9.90
2018-11-02T19:48:21.814Z,9.90
2018-11-02T19:50:50.167Z,9.90
2018-11-02T19:53:18.148Z,9.90
2018-11-02T19:55:48.859Z,9.90
2018-11-02T19:58:17.073Z,9.90
2018-11-02T20:00:44.942Z,10.00
2018-11-02T20:03:13.287Z,10.00
2018-11-02T20:05:41.868Z,10.00
2018-11-02T20:08:10.124Z,10.00
2018-11-02T20:10:38.300Z,10.00
2018-11-02T20:13:06.952Z,10.10
2018-11-02T20:15:34.537Z,10.00
2018-11-02T20:18:02.953Z,10.10
2018-11-02T20:20:30.546Z,10.10
2018-11-02T20:22:58.105Z,10.10
2018-11-02T20:25:26.560Z,10.00
2018-11-02T20:27:55.265Z,10.10
2018-11-02T20:30:22.893Z,10.10
2018-11-02T20:32:51.149Z,10.20
2018-11-02T20:35:18.697Z,10.10
2018-11-02T20:37:47.466Z,10.10
2018-11-02T20:40:18.107Z,10.10
2018-11-02T20:42:46.134Z,10.10
2018-11-02T20:45:14.408Z,10.10
2018-11-02T20:47:46.762Z,10.10
2018-11-02T20:50:15.491Z,10.10
2018-11-02T20:52:43.596Z,10.10
2018-11-02T20:55:12.716Z,10.00
2018-11-02T20:57:41.452Z,10.00
2018-11-02T21:00:13.616Z,10.00
2018-11-02T21:02:44.363Z,10.00
2018-11-02T21:05:13.598Z,10.00
2018-11-02T21:07:42.861Z,10.00
2018-11-02T21:10:12.028Z,9.90
2018-11-02T21:12:40.174Z,9.90
2018-11-02T21:15:10.772Z,10.00
2018-11-02T21:17:40.680Z,9.90
2018-11-02T21:20:11.796Z,9.90
2018-11-02T21:22:40.201Z,10.00
2018-11-02T21:25:09.196Z,10.00
2018-11-02T21:27:37.482Z,10.10
2018-11-02T21:30:10.995Z,10.10
2018-11-02T21:32:38.569Z,10.00
2018-11-02T21:35:06.616Z,10.00
2018-11-02T21:37:35.180Z,10.00
2018-11-02T21:40:03.355Z,10.00
2018-11-02T21:42:31.060Z,9.90
2018-11-02T21:44:59.632Z,10.00
2018-11-02T21:47:27.252Z,10.10
2018-11-02T21:49:55.412Z,10.10
2018-11-02T21:52:23.773Z,10.10
2018-11-02T21:54:52.254Z,10.00
2018-11-02T21:57:20.410Z,10.10
2018-11-02T21:59:48.539Z,10.00
2018-11-02T22:02:17.299Z,10.00
2018-11-02T22:04:44.906Z,10.00
2018-11-02T22:07:13.048Z,10.10
2018-11-02T22:09:42.233Z,10.00
2018-11-02T22:12:10.009Z,10.00
2018-11-02T22:14:38.423Z,10.10
2018-11-02T22:17:06.793Z,10.10
2018-11-02T22:19:34.364Z,10.10
2018-11-02T22:22:01.939Z,10.10
2018-11-02T22:24:30.448Z,10.10
2018-11-02T22:26:58.036Z,10.10
2018-11-02T22:29:25.627Z,10.20
2018-11-02T22:31:53.268Z,10.10
2018-11-02T22:34:20.789Z,10.10
2018-11-02T22:36:48.780Z,10.20
2018-11-02T22:39:17.045Z,10.20
2018-11-02T22:41:45.636Z,10.20
2018-11-02T22:44:14.538Z,10.10
2018-11-02T22:46:42.132Z,10.10
2018-11-02T22:49:10.020Z,10.10
2018-11-02T22:51:37.623Z,10.10
2018-11-02T22:54:05.768Z,10.20
2018-11-02T22:56:34.187Z,10.20
2018-11-02T22:59:02.576Z,10.20
2018-11-02T23:01:32.208Z,10.30
2018-11-02T23:04:00.739Z,10.20
2018-11-02T23:06:30.204Z,10.20
2018-11-02T23:08:57.739Z,10.20
2018-11-02T23:11:26.000Z,10.10
2018-11-02T23:13:53.884Z,10.20
2018-11-02T23:16:22.400Z,10.10
2018-11-02T23:18:50.320Z,10.10
2018-11-02T23:21:18.804Z,10.00
2018-11-02T23:23:46.537Z,10.00
2018-11-02T23:26:15.309Z,10.00
2018-11-02T23:28:43.298Z,10.10
2018-11-02T23:31:10.840Z,10.10
2018-11-02T23:33:38.520Z,10.10
2018-11-02T23:36:06.104Z,10.10
2018-11-02T23:38:34.793Z,10.00
2018-11-02T23:41:03.872Z,9.90
2018-11-02T23:43:32.572Z,10.00
2018-11-02T23:46:00.131Z,9.90
2018-11-02T23:48:28.429Z,9.90
2018-11-02T23:50:56.646Z,10.00
2018-11-02T23:53:24.715Z,9.90
2018-11-02T23:55:54.243Z,9.90
2018-11-02T23:58:22.005Z,10.00
